sensor_id;sensor_type;location;lat;lon;timestamp;temperature;humidity
20125;DHT22;10223;50.862;4.360;2023-02-04T00:01:14;10.50;99.90
20125;DHT22;10223;50.862;4.360;2023-02-04T00:03:43;10.50;99.90
20125;DHT22;10223;50.862;4.360;2023-02-04T00:06:10;10.50;99.90
20125;DHT22;10223;50.862;4.360;2023-02-04T00:08:36;10.60;99.90
20125;DHT22;10223;50.862;4.360;2023-02-04T00:11:04;10.60;99.90
20125;DHT22;10223;50.862;4.360;2023-02-04T00:13:31;10.60;99.90
20125;DHT22;10223;50.862;4.360;2023-02-04T00:15:58;10.50;99.90
20125;DHT22;10223;50.862;4.360;2023-02-04T00:18:25;10.60;99.90
20125;DHT22;10223;50.862;4.360;2023-02-04T00:20:53;10.60;99.90
20125;DHT22;10223;50.862;4.360;2023-02-04T00:23:20;10.70;99.90
20125;DHT22;10223;50.862;4.360;2023-02-04T00:25:47;10.80;99.90
20125;DHT22;10223;50.862;4.360;2023-02-04T00:28:14;10.70;99.90
20125;DHT22;10223;50.862;4.360;2023-02-04T00:30:41;10.70;99.90
20125;DHT22;10223;50.862;4.360;2023-02-04T00:33:08;10.70;99.90
20125;DHT22;10223;50.862;4.360;2023-02-04T00:35:35;10.70;99.90
20125;DHT22;10223;50.862;4.360;2023-02-04T00:38:04;10.80;99.90
20125;DHT22;10223;50.862;4.360;2023-02-04T00:40:32;10.80;99.90
20125;DHT22;10223;50.862;4.360;2023-02-04T00:42:59;10.80;99.90
20125;DHT22;10223;50.862;4.360;2023-02-04T00:45:26;10.70;99.90
20125;DHT22;10223;50.862;4.360;2023-02-04T00:47:53;10.80;99.90
20125;DHT22;10223;50.862;4.360;2023-02-04T00:50:22;10.80;99.90
20125;DHT22;10223;50.862;4.360;2023-02-04T00:52:49;10.90;99.90
20125;DHT22;10223;50.862;4.360;2023-02-04T00:55:18;10.80;99.90
20125;DHT22;10223;50.862;4.360;2023-02-04T00:57:45;10.80;99.90
20125;DHT22;10223;50.862;4.360;2023-02-04T01:00:14;10.80;99.90
20125;DHT22;10223;50.862;4.360;2023-02-04T01:02:41;10.80;99.90
20125;DHT22;10223;50.862;4.360;2023-02-04T01:05:08;10.80;99.90
20125;DHT22;10223;50.862;4.360;2023-02-04T01:07:36;10.90;99.90
20125;DHT22;10223;50.862;4.360;2023-02-04T01:10:03;10.80;99.90
20125;DHT22;10223;50.862;4.360;2023-02-04T01:12:32;10.70;99.90
20125;DHT22;10223;50.862;4.360;2023-02-04T01:14:59;10.70;99.90
20125;DHT22;10223;50.862;4.360;2023-02-04T01:17:26;10.80;99.90
20125;DHT22;10223;50.862;4.360;2023-02-04T01:19:53;10.80;99.90
20125;DHT22;10223;50.862;4.360;2023-02-04T01:22:20;10.70;99.90
20125;DHT22;10223;50.862;4.360;2023-02-04T01:24:47;10.60;99.90
20125;DHT22;10223;50.862;4.360;2023-02-04T01:27:15;10.70;99.90
20125;DHT22;10223;50.862;4.360;2023-02-04T01:29:43;10.90;99.90
20125;DHT22;10223;50.862;4.360;2023-02-04T01:32:10;10.70;99.90
20125;DHT22;10223;50.862;4.360;2023-02-04T01:34:37;10.70;99.90
20125;DHT22;10223;50.862;4.360;2023-02-04T01:37:04;10.60;99.90
20125;DHT22;10223;50.862;4.360;2023-02-04T01:39:31;10.70;99.90
20125;DHT22;10223;50.862;4.360;2023-02-04T01:41:58;10.50;99.90
20125;DHT22;10223;50.862;4.360;2023-02-04T01:44:27;10.60;99.90
20125;DHT22;10223;50.862;4.360;2023-02-04T01:46:55;10.70;99.90
20125;DHT22;10223;50.862;4.360;2023-02-04T01:49:23;10.70;99.90
20125;DHT22;10223;50.862;4.360;2023-02-04T01:51:50;10.80;99.90
20125;DHT22;10223;50.862;4.360;2023-02-04T01:54:17;10.70;99.90
20125;DHT22;10223;50.862;4.360;2023-02-04T01:56:46;10.80;99.90
20125;DHT22;10223;50.862;4.360;2023-02-04T01:59:17;10.80;99.90
20125;DHT22;10223;50.862;4.360;2023-02-04T02:01:46;10.90;99.90
20125;DHT22;10223;50.862;4.360;2023-02-04T02:04:16;10.80;99.90
20125;DHT22;10223;50.862;4.360;2023-02-04T02:06:47;10.80;99.90
20125;DHT22;10223;50.862;4.360;2023-02-04T02:09:14;10.80;99.90
20125;DHT22;10223;50.862;4.360;2023-02-04T02:11:42;10.80;99.90
20125;DHT22;10223;50.862;4.360;2023-02-04T02:14:09;10.70;99.90
20125;DHT22;10223;50.862;4.360;2023-02-04T02:16:36;10.70;99.90
20125;DHT22;10223;50.862;4.360;2023-02-04T02:19:06;10.70;99.90
20125;DHT22;10223;50.862;4.360;2023-02-04T02:21:38;10.70;99.90
20125;DHT22;10223;50.862;4.360;2023-02-04T02:24:24;10.70;99.90
20125;DHT22;10223;50.862;4.360;2023-02-04T02:26:52;10.70;99.90
20125;DHT22;10223;50.862;4.360;2023-02-04T02:29:20;10.70;99.90
20125;DHT22;10223;50.862;4.360;2023-02-04T02:31:47;10.60;99.90
20125;DHT22;10223;50.862;4.360;2023-02-04T02:34:15;10.50;99.90
20125;DHT22;10223;50.862;4.360;2023-02-04T02:36:42;10.60;99.90
20125;DHT22;10223;50.862;4.360;2023-02-04T02:39:09;10.70;99.90
20125;DHT22;10223;50.862;4.360;2023-02-04T02:41:38;10.70;99.90
20125;DHT22;10223;50.862;4.360;2023-02-04T02:44:05;10.60;99.90
20125;DHT22;10223;50.862;4.360;2023-02-04T02:46:32;10.60;99.90
20125;DHT22;10223;50.862;4.360;2023-02-04T02:48:59;10.70;99.90
20125;DHT22;10223;50.862;4.360;2023-02-04T02:51:26;10.50;99.90
20125;DHT22;10223;50.862;4.360;2023-02-04T02:53:54;10.50;99.90
20125;DHT22;10223;50.862;4.360;2023-02-04T02:56:21;10.50;99.90
20125;DHT22;10223;50.862;4.360;2023-02-04T02:58:49;10.50;99.90
20125;DHT22;10223;50.862;4.360;2023-02-04T03:01:16;10.50;99.90
20125;DHT22;10223;50.862;4.360;2023-02-04T03:03:46;10.50;99.90
20125;DHT22;10223;50.862;4.360;2023-02-04T03:06:15;10.50;99.90
20125;DHT22;10223;50.862;4.360;2023-02-04T03:08:46;10.60;99.90
20125;DHT22;10223;50.862;4.360;2023-02-04T03:11:14;10.50;99.90
20125;DHT22;10223;50.862;4.360;2023-02-04T03:13:41;10.50;99.90
20125;DHT22;10223;50.862;4.360;2023-02-04T03:16:10;10.50;99.90
20125;DHT22;10223;50.862;4.360;2023-02-04T03:18:37;10.50;99.90
20125;DHT22;10223;50.862;4.360;2023-02-04T03:21:06;10.50;99.90
20125;DHT22;10223;50.862;4.360;2023-02-04T03:23:34;10.50;99.90
20125;DHT22;10223;50.862;4.360;2023-02-04T03:26:01;10.50;99.90
20125;DHT22;10223;50.862;4.360;2023-02-04T03:28:29;10.60;99.90
20125;DHT22;10223;50.862;4.360;2023-02-04T03:30:56;10.60;99.90
20125;DHT22;10223;50.862;4.360;2023-02-04T03:33:26;10.60;99.90
20125;DHT22;10223;50.862;4.360;2023-02-04T03:35:55;10.60;99.90
20125;DHT22;10223;50.862;4.360;2023-02-04T03:38:22;10.60;99.90
20125;DHT22;10223;50.862;4.360;2023-02-04T03:40:50;10.60;99.90
20125;DHT22;10223;50.862;4.360;2023-02-04T03:43:16;10.60;99.90
20125;DHT22;10223;50.862;4.360;2023-02-04T03:45:44;10.40;99.90
20125;DHT22;10223;50.862;4.360;2023-02-04T03:48:11;10.20;99.90
20125;DHT22;10223;50.862;4.360;2023-02-04T03:50:39;10.10;99.90
20125;DHT22;10223;50.862;4.360;2023-02-04T03:53:06;10.10;99.90
20125;DHT22;10223;50.862;4.360;2023-02-04T03:55:33;10.00;99.90
20125;DHT22;10223;50.862;4.360;2023-02-04T03:58:00;10.00;99.90
20125;DHT22;10223;50.862;4.360;2023-02-04T04:00:27;9.80;99.90
20125;DHT22;10223;50.862;4.360;2023-02-04T04:02:54;10.00;99.90
20125;DHT22;10223;50.862;4.360;2023-02-04T04:05:22;10.10;99.90
20125;DHT22;10223;50.862;4.360;2023-02-04T04:07:50;10.10;99.90
20125;DHT22;10223;50.862;4.360;2023-02-04T04:10:17;10.10;99.90
20125;DHT22;10223;50.862;4.360;2023-02-04T04:12:44;10.10;99.90
20125;DHT22;10223;50.862;4.360;2023-02-04T04:15:11;10.20;99.90
20125;DHT22;10223;50.862;4.360;2023-02-04T04:17:38;10.20;99.90
20125;DHT22;10223;50.862;4.360;2023-02-04T04:20:06;10.30;99.90
20125;DHT22;10223;50.862;4.360;2023-02-04T04:22:33;10.10;99.90
20125;DHT22;10223;50.862;4.360;2023-02-04T04:25:02;10.00;99.90
20125;DHT22;10223;50.862;4.360;2023-02-04T04:27:29;10.10;99.90
20125;DHT22;10223;50.862;4.360;2023-02-04T04:29:56;10.20;99.90
20125;DHT22;10223;50.862;4.360;2023-02-04T04:32:23;10.30;99.90
20125;DHT22;10223;50.862;4.360;2023-02-04T04:34:50;10.30;99.90
20125;DHT22;10223;50.862;4.360;2023-02-04T04:37:17;10.30;99.90
20125;DHT22;10223;50.862;4.360;2023-02-04T04:39:44;10.40;99.90
20125;DHT22;10223;50.862;4.360;2023-02-04T04:42:12;10.50;99.90
20125;DHT22;10223;50.862;4.360;2023-02-04T04:44:39;10.60;99.90
20125;DHT22;10223;50.862;4.360;2023-02-04T04:47:06;10.40;99.90
20125;DHT22;10223;50.862;4.360;2023-02-04T04:49:33;10.40;99.90
20125;DHT22;10223;50.862;4.360;2023-02-04T04:52:00;10.60;99.90
20125;DHT22;10223;50.862;4.360;2023-02-04T04:54:27;10.70;99.90
20125;DHT22;10223;50.862;4.360;2023-02-04T04:56:54;10.70;99.90
20125;DHT22;10223;50.862;4.360;2023-02-04T04:59:22;10.80;99.90
20125;DHT22;10223;50.862;4.360;2023-02-04T05:01:49;10.60;99.90
20125;DHT22;10223;50.862;4.360;2023-02-04T05:04:16;10.60;99.90
20125;DHT22;10223;50.862;4.360;2023-02-04T05:06:43;10.50;99.90
20125;DHT22;10223;50.862;4.360;2023-02-04T05:09:10;10.20;99.90
20125;DHT22;10223;50.862;4.360;2023-02-04T05:11:39;10.30;99.90
20125;DHT22;10223;50.862;4.360;2023-02-04T05:14:06;10.50;99.90
20125;DHT22;10223;50.862;4.360;2023-02-04T05:16:34;10.40;99.90
20125;DHT22;10223;50.862;4.360;2023-02-04T05:19:01;10.40;99.90
20125;DHT22;10223;50.862;4.360;2023-02-04T05:21:28;10.30;99.90
20125;DHT22;10223;50.862;4.360;2023-02-04T05:23:55;10.30;99.90
20125;DHT22;10223;50.862;4.360;2023-02-04T05:26:22;10.20;99.90
20125;DHT22;10223;50.862;4.360;2023-02-04T05:28:49;10.20;99.90
20125;DHT22;10223;50.862;4.360;2023-02-04T05:31:16;10.20;99.90
20125;DHT22;10223;50.862;4.360;2023-02-04T05:33:44;10.20;99.90
20125;DHT22;10223;50.862;4.360;2023-02-04T05:36:11;10.20;99.90
20125;DHT22;10223;50.862;4.360;2023-02-04T05:38:38;10.20;99.90
20125;DHT22;10223;50.862;4.360;2023-02-04T05:41:05;10.30;99.90
20125;DHT22;10223;50.862;4.360;2023-02-04T05:43:32;10.40;99.90
20125;DHT22;10223;50.862;4.360;2023-02-04T05:45:59;10.50;99.90
20125;DHT22;10223;50.862;4.360;2023-02-04T05:48:26;10.50;99.90
20125;DHT22;10223;50.862;4.360;2023-02-04T05:50:55;10.60;99.90
20125;DHT22;10223;50.862;4.360;2023-02-04T05:53:21;10.50;99.90
20125;DHT22;10223;50.862;4.360;2023-02-04T05:55:48;10.60;99.90
20125;DHT22;10223;50.862;4.360;2023-02-04T05:58:15;10.40;99.90
20125;DHT22;10223;50.862;4.360;2023-02-04T06:00:42;10.40;99.90
20125;DHT22;10223;50.862;4.360;2023-02-04T06:03:09;10.40;99.90
20125;DHT22;10223;50.862;4.360;2023-02-04T06:05:36;10.40;99.90
20125;DHT22;10223;50.862;4.360;2023-02-04T06:08:05;10.40;99.90
20125;DHT22;10223;50.862;4.360;2023-02-04T06:10:32;10.40;99.90
20125;DHT22;10223;50.862;4.360;2023-02-04T06:12:59;10.40;99.90
20125;DHT22;10223;50.862;4.360;2023-02-04T06:15:26;10.50;99.90
20125;DHT22;10223;50.862;4.360;2023-02-04T06:17:52;10.50;99.90
20125;DHT22;10223;50.862;4.360;2023-02-04T06:20:19;10.40;99.90
20125;DHT22;10223;50.862;4.360;2023-02-04T06:22:46;10.30;99.90
20125;DHT22;10223;50.862;4.360;2023-02-04T06:25:17;10.30;99.90
20125;DHT22;10223;50.862;4.360;2023-02-04T06:27:44;10.30;99.90
20125;DHT22;10223;50.862;4.360;2023-02-04T06:30:12;10.30;99.90
20125;DHT22;10223;50.862;4.360;2023-02-04T06:32:39;10.30;99.90
20125;DHT22;10223;50.862;4.360;2023-02-04T06:35:07;10.40;99.90
20125;DHT22;10223;50.862;4.360;2023-02-04T06:37:34;10.20;99.90
20125;DHT22;10223;50.862;4.360;2023-02-04T06:40:01;10.30;99.90
20125;DHT22;10223;50.862;4.360;2023-02-04T06:42:31;10.20;99.90
20125;DHT22;10223;50.862;4.360;2023-02-04T06:44:58;10.20;99.90
20125;DHT22;10223;50.862;4.360;2023-02-04T06:47:25;10.10;99.90
20125;DHT22;10223;50.862;4.360;2023-02-04T06:49:51;10.20;99.90
20125;DHT22;10223;50.862;4.360;2023-02-04T06:52:18;10.30;99.90
20125;DHT22;10223;50.862;4.360;2023-02-04T06:54:45;10.10;99.90
20125;DHT22;10223;50.862;4.360;2023-02-04T06:57:12;10.20;99.90
20125;DHT22;10223;50.862;4.360;2023-02-04T06:59:41;10.20;99.90
20125;DHT22;10223;50.862;4.360;2023-02-04T07:02:10;10.20;99.90
20125;DHT22;10223;50.862;4.360;2023-02-04T07:04:37;10.20;99.90
20125;DHT22;10223;50.862;4.360;2023-02-04T07:07:04;10.20;99.90
20125;DHT22;10223;50.862;4.360;2023-02-04T07:09:31;10.30;99.90
20125;DHT22;10223;50.862;4.360;2023-02-04T07:11:57;10.30;99.90
20125;DHT22;10223;50.862;4.360;2023-02-04T07:14:24;10.20;99.90
20125;DHT22;10223;50.862;4.360;2023-02-04T07:16:53;10.20;99.90
20125;DHT22;10223;50.862;4.360;2023-02-04T07:19:22;10.30;99.90
20125;DHT22;10223;50.862;4.360;2023-02-04T07:21:49;10.30;99.90
20125;DHT22;10223;50.862;4.360;2023-02-04T07:24:18;10.30;99.90
20125;DHT22;10223;50.862;4.360;2023-02-04T07:26:45;10.30;99.90
20125;DHT22;10223;50.862;4.360;2023-02-04T07:29:12;10.20;99.90
20125;DHT22;10223;50.862;4.360;2023-02-04T07:31:39;10.20;99.90
20125;DHT22;10223;50.862;4.360;2023-02-04T07:34:08;10.20;99.90
20125;DHT22;10223;50.862;4.360;2023-02-04T07:36:35;10.20;99.90
20125;DHT22;10223;50.862;4.360;2023-02-04T07:39:01;10.10;99.90
20125;DHT22;10223;50.862;4.360;2023-02-04T07:41:28;10.20;99.90
20125;DHT22;10223;50.862;4.360;2023-02-04T07:43:55;10.10;99.90
20125;DHT22;10223;50.862;4.360;2023-02-04T07:46:22;10.10;99.90
20125;DHT22;10223;50.862;4.360;2023-02-04T07:48:49;10.20;99.90
20125;DHT22;10223;50.862;4.360;2023-02-04T07:51:18;10.30;99.90
20125;DHT22;10223;50.862;4.360;2023-02-04T07:53:44;10.20;99.90
20125;DHT22;10223;50.862;4.360;2023-02-04T07:56:11;10.20;99.90
20125;DHT22;10223;50.862;4.360;2023-02-04T07:58:38;10.20;99.90
20125;DHT22;10223;50.862;4.360;2023-02-04T08:01:05;10.10;99.90
20125;DHT22;10223;50.862;4.360;2023-02-04T08:03:32;10.10;99.90
20125;DHT22;10223;50.862;4.360;2023-02-04T08:05:59;10.20;99.90
20125;DHT22;10223;50.862;4.360;2023-02-04T08:08:28;10.20;99.90
20125;DHT22;10223;50.862;4.360;2023-02-04T08:10:55;10.10;99.90
20125;DHT22;10223;50.862;4.360;2023-02-04T08:13:22;10.10;99.90
20125;DHT22;10223;50.862;4.360;2023-02-04T08:15:50;10.10;99.90
20125;DHT22;10223;50.862;4.360;2023-02-04T08:18:16;10.20;99.90
20125;DHT22;10223;50.862;4.360;2023-02-04T08:20:43;10.20;99.90
20125;DHT22;10223;50.862;4.360;2023-02-04T08:23:10;10.10;99.90
20125;DHT22;10223;50.862;4.360;2023-02-04T08:25:39;10.10;99.90
20125;DHT22;10223;50.862;4.360;2023-02-04T08:28:06;10.00;99.90
20125;DHT22;10223;50.862;4.360;2023-02-04T08:30:33;10.00;99.90
20125;DHT22;10223;50.862;4.360;2023-02-04T08:32:59;9.90;99.90
20125;DHT22;10223;50.862;4.360;2023-02-04T08:35:26;9.90;99.90
20125;DHT22;10223;50.862;4.360;2023-02-04T08:37:53;9.90;99.90
20125;DHT22;10223;50.862;4.360;2023-02-04T08:40:21;9.90;99.90
20125;DHT22;10223;50.862;4.360;2023-02-04T08:42:49;10.00;99.90
20125;DHT22;10223;50.862;4.360;2023-02-04T08:45:16;10.00;99.90
20125;DHT22;10223;50.862;4.360;2023-02-04T08:47:43;10.00;99.90
20125;DHT22;10223;50.862;4.360;2023-02-04T08:50:10;10.00;99.90
20125;DHT22;10223;50.862;4.360;2023-02-04T08:52:37;10.00;99.90
20125;DHT22;10223;50.862;4.360;2023-02-04T08:55:05;10.10;99.90
20125;DHT22;10223;50.862;4.360;2023-02-04T08:57:32;10.10;99.90
20125;DHT22;10223;50.862;4.360;2023-02-04T09:00:01;10.20;99.90
20125;DHT22;10223;50.862;4.360;2023-02-04T09:02:28;10.20;99.90
20125;DHT22;10223;50.862;4.360;2023-02-04T09:04:55;10.20;99.90
20125;DHT22;10223;50.862;4.360;2023-02-04T09:07:21;10.20;99.90
20125;DHT22;10223;50.862;4.360;2023-02-04T09:09:48;10.20;99.90
20125;DHT22;10223;50.862;4.360;2023-02-04T09:12:15;10.30;99.90
20125;DHT22;10223;50.862;4.360;2023-02-04T09:14:42;10.30;99.90
20125;DHT22;10223;50.862;4.360;2023-02-04T09:17:11;10.40;99.90
20125;DHT22;10223;50.862;4.360;2023-02-04T09:19:37;10.40;99.90
20125;DHT22;10223;50.862;4.360;2023-02-04T09:22:04;10.50;99.90
20125;DHT22;10223;50.862;4.360;2023-02-04T09:24:31;10.30;99.90
20125;DHT22;10223;50.862;4.360;2023-02-04T09:26:58;10.20;99.90
20125;DHT22;10223;50.862;4.360;2023-02-04T09:29:25;10.30;99.90
20125;DHT22;10223;50.862;4.360;2023-02-04T09:31:52;10.30;99.90
20125;DHT22;10223;50.862;4.360;2023-02-04T09:34:22;10.00;99.90
20125;DHT22;10223;50.862;4.360;2023-02-04T09:36:49;10.20;99.90
20125;DHT22;10223;50.862;4.360;2023-02-04T09:39:16;10.40;99.90
20125;DHT22;10223;50.862;4.360;2023-02-04T09:41:43;10.30;99.90
20125;DHT22;10223;50.862;4.360;2023-02-04T09:44:13;10.20;99.90
20125;DHT22;10223;50.862;4.360;2023-02-04T09:46:47;10.20;99.90
20125;DHT22;10223;50.862;4.360;2023-02-04T09:49:14;10.20;99.90
20125;DHT22;10223;50.862;4.360;2023-02-04T09:51:43;10.30;99.90
20125;DHT22;10223;50.862;4.360;2023-02-04T09:54:13;10.30;99.90
20125;DHT22;10223;50.862;4.360;2023-02-04T09:56:40;10.40;99.90
20125;DHT22;10223;50.862;4.360;2023-02-04T09:59:10;10.40;99.90
20125;DHT22;10223;50.862;4.360;2023-02-04T10:01:37;10.60;99.90
20125;DHT22;10223;50.862;4.360;2023-02-04T10:04:07;10.50;99.90
20125;DHT22;10223;50.862;4.360;2023-02-04T10:06:35;10.40;99.90
20125;DHT22;10223;50.862;4.360;2023-02-04T10:09:04;10.60;99.90
20125;DHT22;10223;50.862;4.360;2023-02-04T10:11:35;10.70;99.90
20125;DHT22;10223;50.862;4.360;2023-02-04T10:14:03;10.70;99.90
20125;DHT22;10223;50.862;4.360;2023-02-04T10:16:31;10.90;99.90
20125;DHT22;10223;50.862;4.360;2023-02-04T10:19:01;10.80;99.90
20125;DHT22;10223;50.862;4.360;2023-02-04T10:21:29;10.50;99.90
20125;DHT22;10223;50.862;4.360;2023-02-04T10:23:58;10.50;99.90
20125;DHT22;10223;50.862;4.360;2023-02-04T10:26:28;10.70;99.90
20125;DHT22;10223;50.862;4.360;2023-02-04T10:29:00;10.80;99.90
20125;DHT22;10223;50.862;4.360;2023-02-04T10:31:32;10.90;99.90
20125;DHT22;10223;50.862;4.360;2023-02-04T10:34:05;11.00;99.90
20125;DHT22;10223;50.862;4.360;2023-02-04T10:36:32;11.10;99.90
20125;DHT22;10223;50.862;4.360;2023-02-04T10:39:00;11.00;99.90
20125;DHT22;10223;50.862;4.360;2023-02-04T10:41:28;11.00;99.90
20125;DHT22;10223;50.862;4.360;2023-02-04T10:44:04;11.10;99.90
20125;DHT22;10223;50.862;4.360;2023-02-04T10:46:31;11.10;99.90
20125;DHT22;10223;50.862;4.360;2023-02-04T10:48:58;11.10;99.90
20125;DHT22;10223;50.862;4.360;2023-02-04T10:51:25;11.20;99.90
20125;DHT22;10223;50.862;4.360;2023-02-04T10:53:52;11.20;99.90
20125;DHT22;10223;50.862;4.360;2023-02-04T10:56:38;11.20;99.90
20125;DHT22;10223;50.862;4.360;2023-02-04T10:59:07;10.90;99.90
20125;DHT22;10223;50.862;4.360;2023-02-04T11:01:37;10.80;99.90
20125;DHT22;10223;50.862;4.360;2023-02-04T11:04:08;10.80;99.90
20125;DHT22;10223;50.862;4.360;2023-02-04T11:06:36;10.70;99.90
20125;DHT22;10223;50.862;4.360;2023-02-04T11:09:03;10.80;99.90
20125;DHT22;10223;50.862;4.360;2023-02-04T11:11:30;10.80;99.90
20125;DHT22;10223;50.862;4.360;2023-02-04T11:14:00;10.70;99.90
20125;DHT22;10223;50.862;4.360;2023-02-04T11:16:29;10.60;99.90
20125;DHT22;10223;50.862;4.360;2023-02-04T11:18:59;10.70;99.90
20125;DHT22;10223;50.862;4.360;2023-02-04T11:21:28;10.80;99.90
20125;DHT22;10223;50.862;4.360;2023-02-04T11:24:22;10.80;99.90
20125;DHT22;10223;50.862;4.360;2023-02-04T11:26:51;10.70;99.90
20125;DHT22;10223;50.862;4.360;2023-02-04T11:29:28;10.80;99.90
20125;DHT22;10223;50.862;4.360;2023-02-04T11:32:04;10.80;99.90
20125;DHT22;10223;50.862;4.360;2023-02-04T11:34:45;11.10;99.90
20125;DHT22;10223;50.862;4.360;2023-02-04T11:37:18;11.10;99.90
20125;DHT22;10223;50.862;4.360;2023-02-04T11:39:53;11.00;99.90
20125;DHT22;10223;50.862;4.360;2023-02-04T11:42:30;11.00;99.90
20125;DHT22;10223;50.862;4.360;2023-02-04T11:45:00;11.10;99.90
20125;DHT22;10223;50.862;4.360;2023-02-04T11:47:34;11.30;99.90
20125;DHT22;10223;50.862;4.360;2023-02-04T11:50:04;11.40;99.90
20125;DHT22;10223;50.862;4.360;2023-02-04T11:52:36;11.60;99.90
20125;DHT22;10223;50.862;4.360;2023-02-04T11:55:03;11.70;99.90
20125;DHT22;10223;50.862;4.360;2023-02-04T11:57:37;11.90;99.90
20125;DHT22;10223;50.862;4.360;2023-02-04T12:00:12;11.70;99.90
20125;DHT22;10223;50.862;4.360;2023-02-04T12:02:41;11.60;99.90
20125;DHT22;10223;50.862;4.360;2023-02-04T12:05:11;11.50;99.90
20125;DHT22;10223;50.862;4.360;2023-02-04T12:07:39;11.50;99.90
20125;DHT22;10223;50.862;4.360;2023-02-04T12:10:11;11.80;99.90
20125;DHT22;10223;50.862;4.360;2023-02-04T12:12:44;11.80;99.90
20125;DHT22;10223;50.862;4.360;2023-02-04T12:15:20;11.90;99.90
20125;DHT22;10223;50.862;4.360;2023-02-04T12:18:00;11.80;99.90
20125;DHT22;10223;50.862;4.360;2023-02-04T12:20:27;11.90;99.90
20125;DHT22;10223;50.862;4.360;2023-02-04T12:22:55;11.90;99.90
20125;DHT22;10223;50.862;4.360;2023-02-04T12:25:22;11.90;99.90
20125;DHT22;10223;50.862;4.360;2023-02-04T12:27:49;12.10;99.90
20125;DHT22;10223;50.862;4.360;2023-02-04T12:30:18;12.20;99.90
20125;DHT22;10223;50.862;4.360;2023-02-04T12:32:45;12.20;99.90
20125;DHT22;10223;50.862;4.360;2023-02-04T12:35:13;12.30;99.90
20125;DHT22;10223;50.862;4.360;2023-02-04T12:37:40;12.40;99.90
20125;DHT22;10223;50.862;4.360;2023-02-04T12:40:08;12.30;99.90
20125;DHT22;10223;50.862;4.360;2023-02-04T12:42:36;12.20;99.90
20125;DHT22;10223;50.862;4.360;2023-02-04T12:45:03;12.20;99.90
20125;DHT22;10223;50.862;4.360;2023-02-04T12:47:31;12.20;99.90
20125;DHT22;10223;50.862;4.360;2023-02-04T12:49:58;12.30;99.90
20125;DHT22;10223;50.862;4.360;2023-02-04T12:52:25;12.20;99.90
20125;DHT22;10223;50.862;4.360;2023-02-04T12:54:52;12.20;99.90
20125;DHT22;10223;50.862;4.360;2023-02-04T12:57:19;12.30;99.90
20125;DHT22;10223;50.862;4.360;2023-02-04T12:59:46;12.30;99.90
20125;DHT22;10223;50.862;4.360;2023-02-04T13:02:14;12.20;99.90
20125;DHT22;10223;50.862;4.360;2023-02-04T13:04:42;12.20;99.90
20125;DHT22;10223;50.862;4.360;2023-02-04T13:07:09;12.10;99.90
20125;DHT22;10223;50.862;4.360;2023-02-04T13:09:36;12.20;99.90
20125;DHT22;10223;50.862;4.360;2023-02-04T13:12:03;12.10;99.90
20125;DHT22;10223;50.862;4.360;2023-02-04T13:14:30;12.00;99.90
20125;DHT22;10223;50.862;4.360;2023-02-04T13:16:58;11.80;99.90
20125;DHT22;10223;50.862;4.360;2023-02-04T13:19:24;11.80;99.90
20125;DHT22;10223;50.862;4.360;2023-02-04T13:21:53;11.90;99.90
20125;DHT22;10223;50.862;4.360;2023-02-04T13:24:20;11.70;99.90
20125;DHT22;10223;50.862;4.360;2023-02-04T13:26:47;11.80;99.90
20125;DHT22;10223;50.862;4.360;2023-02-04T13:29:14;11.70;99.90
20125;DHT22;10223;50.862;4.360;2023-02-04T13:31:41;11.70;99.90
20125;DHT22;10223;50.862;4.360;2023-02-04T13:34:07;11.70;99.90
20125;DHT22;10223;50.862;4.360;2023-02-04T13:36:34;11.70;99.90
20125;DHT22;10223;50.862;4.360;2023-02-04T13:39:03;11.60;99.90
20125;DHT22;10223;50.862;4.360;2023-02-04T13:41:30;11.70;99.90
20125;DHT22;10223;50.862;4.360;2023-02-04T13:43:57;11.70;99.90
20125;DHT22;10223;50.862;4.360;2023-02-04T13:46:24;11.80;99.90
20125;DHT22;10223;50.862;4.360;2023-02-04T13:48:51;11.70;99.90
20125;DHT22;10223;50.862;4.360;2023-02-04T13:51:18;11.80;99.90
20125;DHT22;10223;50.862;4.360;2023-02-04T13:53:45;11.80;99.90
20125;DHT22;10223;50.862;4.360;2023-02-04T13:56:13;11.90;99.90
20125;DHT22;10223;50.862;4.360;2023-02-04T13:58:40;12.00;99.90
20125;DHT22;10223;50.862;4.360;2023-02-04T14:01:08;11.90;99.90
20125;DHT22;10223;50.862;4.360;2023-02-04T14:03:35;11.80;99.90
20125;DHT22;10223;50.862;4.360;2023-02-04T14:06:03;11.90;99.90
20125;DHT22;10223;50.862;4.360;2023-02-04T14:08:30;11.90;99.90
20125;DHT22;10223;50.862;4.360;2023-02-04T14:10:58;11.80;99.90
20125;DHT22;10223;50.862;4.360;2023-02-04T14:13:26;11.70;99.90
20125;DHT22;10223;50.862;4.360;2023-02-04T14:15:53;11.70;99.90
20125;DHT22;10223;50.862;4.360;2023-02-04T14:18:20;11.60;99.90
20125;DHT22;10223;50.862;4.360;2023-02-04T14:20:47;11.70;99.90
20125;DHT22;10223;50.862;4.360;2023-02-04T14:23:14;11.60;99.90
20125;DHT22;10223;50.862;4.360;2023-02-04T14:25:41;11.50;99.90
20125;DHT22;10223;50.862;4.360;2023-02-04T14:28:08;11.50;99.90
20125;DHT22;10223;50.862;4.360;2023-02-04T14:30:36;11.60;99.90
20125;DHT22;10223;50.862;4.360;2023-02-04T14:33:03;11.70;99.90
20125;DHT22;10223;50.862;4.360;2023-02-04T14:35:31;11.50;99.90
20125;DHT22;10223;50.862;4.360;2023-02-04T14:37:58;11.40;99.90
20125;DHT22;10223;50.862;4.360;2023-02-04T14:40:25;11.50;99.90
20125;DHT22;10223;50.862;4.360;2023-02-04T14:42:52;11.60;99.90
20125;DHT22;10223;50.862;4.360;2023-02-04T14:45:19;11.70;99.90
20125;DHT22;10223;50.862;4.360;2023-02-04T14:47:47;11.80;99.90
20125;DHT22;10223;50.862;4.360;2023-02-04T14:50:16;12.00;99.90
20125;DHT22;10223;50.862;4.360;2023-02-04T14:52:43;12.00;99.90
20125;DHT22;10223;50.862;4.360;2023-02-04T14:55:10;11.90;99.90
20125;DHT22;10223;50.862;4.360;2023-02-04T14:57:38;11.90;99.90
20125;DHT22;10223;50.862;4.360;2023-02-04T15:00:06;12.00;99.90
20125;DHT22;10223;50.862;4.360;2023-02-04T15:02:33;11.90;99.90
20125;DHT22;10223;50.862;4.360;2023-02-04T15:05:02;12.00;99.90
20125;DHT22;10223;50.862;4.360;2023-02-04T15:07:29;12.00;99.90
20125;DHT22;10223;50.862;4.360;2023-02-04T15:09:56;12.20;99.90
20125;DHT22;10223;50.862;4.360;2023-02-04T15:12:23;12.20;99.90
20125;DHT22;10223;50.862;4.360;2023-02-04T15:14:50;12.20;99.90
20125;DHT22;10223;50.862;4.360;2023-02-04T15:17:17;12.10;99.90
20125;DHT22;10223;50.862;4.360;2023-02-04T15:19:44;11.80;99.90
20125;DHT22;10223;50.862;4.360;2023-02-04T15:22:13;11.90;99.90
20125;DHT22;10223;50.862;4.360;2023-02-04T15:24:40;12.00;99.90
20125;DHT22;10223;50.862;4.360;2023-02-04T15:27:07;12.00;99.90
20125;DHT22;10223;50.862;4.360;2023-02-04T15:29:34;11.80;99.90
20125;DHT22;10223;50.862;4.360;2023-02-04T15:32:01;11.60;99.90
20125;DHT22;10223;50.862;4.360;2023-02-04T15:34:28;11.60;99.90